Homebases

[av_textblock size=” font_color=” color=” av-medium-font-size=” av-small-font-size=” av-mini-font-size=” av_uid=’av-jyzuj987′ custom_class=” admin_preview_bg=”]
EBAW

EBAW 211650Z 03008KT 9999 BKN013 BKN020 17/14 Q1012 NOSIG

TAF TAF EBAW 232300Z 2400/2412 25011KT 9999 SCT030

EHWO

EHWO 211712Z AUTO 04008KT 350V080 9999 BKN015 OVC018 16/13 Q1012 WHT

TAF EHWO 210850Z 2109/2121 03008KT 9999 FEW008 BKN012 BKN020 TEMPO 2109/2111 4500 RA BKN008 PROB30 TEMPO 2109/2111 SCT004 BKN007 BECMG 2111/2114 BKN020 PROB40 TEMPO 2111/2115 FEW008 SCT012 BKN017

EBBL

EBBL 211655Z AUTO 02007KT 9999 OVC021/// 18/14 Q1011 WHT

TAF EBBL 211541Z 2119/2207 04008KT 9999 SCT015 BKN030 PROB30 TEMPO 2119/2121 5000 -SHRA SCT010 BKN015 BECMG 2201/2203 BKN010

Always consult the official METAR resources.

[/av_textblock]

[av_textblock size=” font_color=” color=” av-desktop-hide=” av-medium-hide=” av-small-hide=” av-mini-hide=” av-medium-font-size=” av-small-font-size=” av-mini-font-size=” av_uid=’av-srtu’]


[/av_textblock]